Terminal Aerodrome Forecast
Issued by NWS

Home | Current Version | Previous Version | Text Only | Print | Product List | Glossary On
Versions: 1 2 3 4 5 6 7 8 9 10 11 12 13 14
425
FTUS43 KICT 251342 AAA
TAFCNU
TAF AMD
KCNU 251342Z 2514/2612 VRB05KT 6SM -TSRA SCT040CB OVC090
      TEMPO 2514/2516 VRB15G25KT 3SM +TSRA BKN015CB
     FM251600 08009KT P6SM VCTS SCT040CB BKN100
     FM252200 06007KT P6SM FEW040 SCT150=

USA.gov is the U.S. government's official web portal to all federal, state and local government web resources and services.